Time;durP1;ratioP1;P1;durP2;ratioP2;P2;SDS_P1;SDS_P2;PMS_P1;PMS_P2;Temp;Humidity;BMP_temperature;BMP_pressure;BME280_temperature;BME280_humidity;BME280_pressure;Samples;Min_cycle;Max_cycle;Signal;HPM_P1;HPM_P2
2023/08/24 00:01:06;;;;;;;19.00;17.23;;;;;;;;;;5074099;28;20040;-71
2023/08/24 00:03:32;;;;;;;22.05;19.10;;;;;;;;;;5070911;28;20088;-72
2023/08/24 00:05:58;;;;;;;20.42;18.63;;;;;;;;;;5065278;28;20024;-72
2023/08/24 00:08:23;;;;;;;20.92;19.15;;;;;;;;;;5065990;28;20165;-68
2023/08/24 00:10:49;;;;;;;24.38;19.50;;;;;;;;;;5070258;28;20024;-69
2023/08/24 00:13:15;;;;;;;20.98;19.08;;;;;;;;;;5063858;28;20028;-70
2023/08/24 00:15:41;;;;;;;19.92;18.17;;;;;;;;;;5073318;28;20036;-71
2023/08/24 00:18:06;;;;;;;19.45;17.77;;;;;;;;;;5072282;28;20036;-70
2023/08/24 00:20:34;;;;;;;19.38;17.65;;;;;;;;;;5067164;28;20161;-72
2023/08/24 00:23:00;;;;;;;20.27;18.27;;;;;;;;;;5062932;28;20346;-70
2023/08/24 00:25:26;;;;;;;20.30;18.70;;;;;;;;;;5063450;28;20490;-70
2023/08/24 00:27:54;;;;;;;20.52;17.90;;;;;;;;;;5069305;28;20020;-70
2023/08/24 00:30:20;;;;;;;19.23;17.67;;;;;;;;;;5060191;28;20031;-67
2023/08/24 00:32:45;;;;;;;20.70;18.85;;;;;;;;;;5072988;28;20024;-68
2023/08/24 00:35:10;;;;;;;19.73;17.75;;;;;;;;;;5070527;28;20029;-69
2023/08/24 00:37:36;;;;;;;22.75;20.33;;;;;;;;;;5073064;28;20017;-73
2023/08/24 00:40:04;;;;;;;21.80;19.77;;;;;;;;;;5072136;28;20325;-69
2023/08/24 00:42:29;;;;;;;21.25;19.17;;;;;;;;;;5072269;28;20094;-73
2023/08/24 00:44:55;;;;;;;21.08;19.27;;;;;;;;;;5063545;28;20025;-68
2023/08/24 00:47:21;;;;;;;19.90;18.17;;;;;;;;;;5069363;28;20411;-69
2023/08/24 00:49:46;;;;;;;21.63;19.65;;;;;;;;;;5068287;28;20107;-70
2023/08/24 00:52:12;;;;;;;23.25;21.17;;;;;;;;;;5066200;28;20118;-74
2023/08/24 00:54:39;;;;;;;22.85;20.88;;;;;;;;;;5071182;28;20028;-71
2023/08/24 00:57:04;;;;;;;22.25;20.35;;;;;;;;;;5067430;28;20024;-69
2023/08/24 00:59:30;;;;;;;23.05;20.77;;;;;;;;;;5070627;28;20028;-67
2023/08/24 01:01:56;;;;;;;22.02;19.95;;;;;;;;;;5072324;28;20032;-72
2023/08/24 01:04:22;;;;;;;22.50;20.52;;;;;;;;;;5075127;28;20028;-70
2023/08/24 01:06:47;;;;;;;22.95;21.17;;;;;;;;;;5077340;28;20119;-73
2023/08/24 01:09:13;;;;;;;23.02;21.00;;;;;;;;;;5070852;28;20529;-71
2023/08/24 01:11:57;;;;;;;23.25;20.90;;;;;;;;;;5068873;28;20028;-70
2023/08/24 01:14:22;;;;;;;24.15;22.05;;;;;;;;;;5065032;28;20362;-69
2023/08/24 01:16:49;;;;;;;24.10;22.13;;;;;;;;;;5066293;28;20114;-69
2023/08/24 01:19:33;;;;;;;24.80;21.50;;;;;;;;;;5075786;28;20428;-70
2023/08/24 01:22:01;;;;;;;22.13;20.13;;;;;;;;;;5076460;28;20036;-69
2023/08/24 01:24:40;;;;;;;22.93;21.03;;;;;;;;;;5077262;28;20455;-69
2023/08/24 01:27:06;;;;;;;22.60;20.30;;;;;;;;;;5074603;28;20020;-73
2023/08/24 01:29:31;;;;;;;20.70;18.67;;;;;;;;;;5075493;28;20031;-69
2023/08/24 01:31:57;;;;;;;21.83;19.55;;;;;;;;;;5050222;28;20118;-71
2023/08/24 01:34:22;;;;;;;20.77;18.85;;;;;;;;;;5070813;28;20028;-68
2023/08/24 01:36:48;;;;;;;21.77;19.80;;;;;;;;;;5068588;28;20396;-69
2023/08/24 01:39:30;;;;;;;20.15;18.33;;;;;;;;;;5075738;28;20032;-68
2023/08/24 01:41:58;;;;;;;20.33;18.73;;;;;;;;;;5073108;28;20064;-70
2023/08/24 01:44:26;;;;;;;21.90;19.70;;;;;;;;;;5074853;28;20036;-69
2023/08/24 01:46:52;;;;;;;20.77;18.67;;;;;;;;;;5068256;28;20415;-72
2023/08/24 01:49:18;;;;;;;21.40;19.35;;;;;;;;;;5068824;28;20103;-69
2023/08/24 01:51:44;;;;;;;21.48;19.60;;;;;;;;;;5069966;28;20027;-69
2023/08/24 01:54:09;;;;;;;23.00;20.88;;;;;;;;;;5057491;28;20063;-68
2023/08/24 01:56:35;;;;;;;22.13;19.77;;;;;;;;;;5075950;28;20060;-71
2023/08/24 01:59:00;;;;;;;21.40;19.20;;;;;;;;;;5071980;28;20082;-69
2023/08/24 02:01:26;;;;;;;21.73;19.73;;;;;;;;;;5070064;28;20047;-68
2023/08/24 02:03:51;;;;;;;21.60;19.50;;;;;;;;;;5066391;28;20085;-68
2023/08/24 02:06:16;;;;;;;22.73;20.77;;;;;;;;;;5074453;28;20025;-73
2023/08/24 02:08:42;;;;;;;21.20;19.48;;;;;;;;;;5071169;28;20024;-69
2023/08/24 02:11:08;;;;;;;22.67;20.52;;;;;;;;;;5067822;28;20418;-70
2023/08/24 02:13:33;;;;;;;21.75;19.77;;;;;;;;;;5074695;28;20028;-69
2023/08/24 02:16:05;;;;;;;21.63;19.70;;;;;;;;;;5075683;28;20050;-70
2023/08/24 02:18:31;;;;;;;21.70;19.73;;;;;;;;;;5065309;28;20028;-71
2023/08/24 02:20:56;;;;;;;21.98;19.95;;;;;;;;;;5065655;28;20051;-68
2023/08/24 02:23:22;;;;;;;20.67;18.52;;;;;;;;;;5070755;28;20074;-70
2023/08/24 02:25:47;;;;;;;21.85;19.77;;;;;;;;;;5071032;28;20020;-70
2023/08/24 02:28:12;;;;;;;21.30;19.40;;;;;;;;;;5065788;28;20067;-72
2023/08/24 02:30:38;;;;;;;21.30;19.40;;;;;;;;;;5072865;28;20501;-72
2023/08/24 02:33:04;;;;;;;21.25;19.15;;;;;;;;;;5067527;28;20053;-73
2023/08/24 02:35:29;;;;;;;21.65;19.60;;;;;;;;;;5071394;28;20020;-68
2023/08/24 02:37:56;;;;;;;22.50;20.38;;;;;;;;;;5074405;28;21084;-69
2023/08/24 02:40:22;;;;;;;23.73;21.30;;;;;;;;;;5064618;28;20024;-73
2023/08/24 02:42:47;;;;;;;22.00;20.00;;;;;;;;;;5074107;28;20031;-69
2023/08/24 02:45:12;;;;;;;22.35;20.25;;;;;;;;;;5075316;28;20082;-73
2023/08/24 02:47:38;;;;;;;23.88;21.77;;;;;;;;;;5074066;28;20663;-70
2023/08/24 02:50:06;;;;;;;23.13;21.17;;;;;;;;;;5067829;28;20032;-70
2023/08/24 02:52:31;;;;;;;24.42;21.88;;;;;;;;;;5075400;28;20500;-70
2023/08/24 02:54:56;;;;;;;22.80;20.80;;;;;;;;;;5073831;28;20127;-70
2023/08/24 02:57:22;;;;;;;23.15;20.92;;;;;;;;;;5073597;28;20096;-71
2023/08/24 02:59:47;;;;;;;23.77;21.77;;;;;;;;;;5075016;28;20025;-69
2023/08/24 03:02:13;;;;;;;24.70;22.55;;;;;;;;;;5071163;28;20446;-73
2023/08/24 03:04:38;;;;;;;24.80;22.50;;;;;;;;;;5069036;28;20027;-71
2023/08/24 03:07:03;;;;;;;24.15;21.88;;;;;;;;;;5069583;28;20107;-70
2023/08/24 03:09:29;;;;;;;25.17;22.80;;;;;;;;;;5066605;28;20024;-69
2023/08/24 03:11:54;;;;;;;26.20;23.63;;;;;;;;;;5071219;28;20078;-71
2023/08/24 03:14:20;;;;;;;27.13;24.60;;;;;;;;;;5064544;28;20039;-68
2023/08/24 03:16:45;;;;;;;26.70;23.98;;;;;;;;;;5067609;28;20449;-69
2023/08/24 03:19:12;;;;;;;25.70;23.48;;;;;;;;;;5073530;28;20023;-68
2023/08/24 03:21:37;;;;;;;26.48;23.83;;;;;;;;;;5073290;28;20131;-71
2023/08/24 03:24:04;;;;;;;27.27;24.52;;;;;;;;;;5069260;28;20047;-71
2023/08/24 03:26:29;;;;;;;28.05;25.38;;;;;;;;;;5069933;28;20039;-69
2023/08/24 03:28:55;;;;;;;27.67;25.17;;;;;;;;;;5063219;28;20028;-69
2023/08/24 03:31:20;;;;;;;25.70;23.30;;;;;;;;;;5072189;28;20095;-69
2023/08/24 03:33:46;;;;;;;27.17;24.65;;;;;;;;;;5072768;28;20032;-69
2023/08/24 03:36:12;;;;;;;25.35;23.00;;;;;;;;;;5074951;28;20024;-71
2023/08/24 03:38:38;;;;;;;24.65;22.30;;;;;;;;;;5073241;28;20063;-71
2023/08/24 03:41:03;;;;;;;23.90;21.88;;;;;;;;;;5073355;28;20059;-70
2023/08/24 03:43:36;;;;;;;25.48;22.98;;;;;;;;;;5055363;28;20136;-70
2023/08/24 03:46:03;;;;;;;25.20;22.80;;;;;;;;;;5066319;28;20114;-68
2023/08/24 03:48:29;;;;;;;25.80;23.33;;;;;;;;;;5071296;28;20467;-71
2023/08/24 03:50:55;;;;;;;25.35;22.88;;;;;;;;;;5065690;28;20033;-69
2023/08/24 03:53:22;;;;;;;25.80;23.50;;;;;;;;;;5064472;28;20437;-69
2023/08/24 03:55:49;;;;;;;25.23;22.92;;;;;;;;;;5072166;28;20028;-74
2023/08/24 03:58:14;;;;;;;25.77;23.30;;;;;;;;;;5070068;28;20127;-71
2023/08/24 04:00:40;;;;;;;28.80;26.00;;;;;;;;;;5061591;28;20103;-74
2023/08/24 04:03:05;;;;;;;26.65;23.80;;;;;;;;;;5067718;28;20501;-69
2023/08/24 04:05:31;;;;;;;29.23;26.48;;;;;;;;;;5052323;28;20064;-70
2023/08/24 04:07:56;;;;;;;36.92;33.55;;;;;;;;;;5058667;28;20021;-71
2023/08/24 04:10:22;;;;;;;42.95;39.05;;;;;;;;;;5051150;28;20431;-67
2023/08/24 04:12:47;;;;;;;47.05;42.72;;;;;;;;;;5050231;28;20032;-70
2023/08/24 04:15:12;;;;;;;43.80;39.70;;;;;;;;;;5051568;28;20040;-73
2023/08/24 04:17:38;;;;;;;37.50;34.08;;;;;;;;;;5052932;28;20111;-71
2023/08/24 04:20:06;;;;;;;32.05;29.35;;;;;;;;;;5053131;28;20020;-68
2023/08/24 04:22:31;;;;;;;32.35;28.50;;;;;;;;;;5069371;28;20470;-69
2023/08/24 04:24:57;;;;;;;27.25;24.85;;;;;;;;;;5072741;28;20028;-71
2023/08/24 04:27:22;;;;;;;25.65;23.33;;;;;;;;;;5071962;28;20115;-70
2023/08/24 04:29:48;;;;;;;27.13;24.77;;;;;;;;;;5072271;28;20051;-73
2023/08/24 04:32:14;;;;;;;24.58;22.17;;;;;;;;;;5045610;28;20454;-70
2023/08/24 04:34:39;;;;;;;25.48;22.83;;;;;;;;;;5075024;28;20024;-71
2023/08/24 04:37:05;;;;;;;25.15;22.83;;;;;;;;;;5076875;28;20047;-67
2023/08/24 04:39:31;;;;;;;24.17;22.17;;;;;;;;;;5071335;28;20032;-69
2023/08/24 04:41:56;;;;;;;24.70;22.50;;;;;;;;;;5064884;28;20034;-71
2023/08/24 04:44:22;;;;;;;26.10;23.85;;;;;;;;;;5064972;28;20138;-73
2023/08/24 04:46:47;;;;;;;25.52;23.13;;;;;;;;;;5060213;28;20472;-67
2023/08/24 04:49:13;;;;;;;26.85;24.42;;;;;;;;;;5066186;28;21003;-69
2023/08/24 04:51:38;;;;;;;26.25;24.05;;;;;;;;;;5062156;28;20071;-70
2023/08/24 04:54:03;;;;;;;25.35;22.95;;;;;;;;;;5070408;28;20474;-67
2023/08/24 04:56:29;;;;;;;28.90;26.20;;;;;;;;;;5075608;28;20031;-67
2023/08/24 04:58:56;;;;;;;28.58;26.17;;;;;;;;;;5073461;28;20061;-71
2023/08/24 05:01:22;;;;;;;27.35;24.85;;;;;;;;;;5077648;28;20040;-73
2023/08/24 05:03:47;;;;;;;26.77;24.33;;;;;;;;;;5059180;28;20054;-71
2023/08/24 05:06:12;;;;;;;29.15;26.73;;;;;;;;;;5075370;28;20031;-74
2023/08/24 05:08:38;;;;;;;28.73;26.33;;;;;;;;;;5077090;28;20024;-72
2023/08/24 05:11:10;;;;;;;30.65;27.77;;;;;;;;;;5077028;28;20067;-71
2023/08/24 05:13:35;;;;;;;28.88;25.73;;;;;;;;;;5073497;28;20049;-70
2023/08/24 05:16:00;;;;;;;29.17;26.67;;;;;;;;;;5076536;28;20020;-70
2023/08/24 05:18:26;;;;;;;28.00;25.55;;;;;;;;;;5077228;28;20027;-70
2023/08/24 05:20:51;;;;;;;28.55;26.05;;;;;;;;;;5070752;28;20359;-71
2023/08/24 05:23:17;;;;;;;28.75;26.20;;;;;;;;;;5074628;28;20067;-74
2023/08/24 05:25:42;;;;;;;27.33;24.73;;;;;;;;;;5077090;28;20032;-73
2023/08/24 05:28:08;;;;;;;26.20;23.73;;;;;;;;;;5074772;28;20488;-73
2023/08/24 05:30:33;;;;;;;26.75;24.33;;;;;;;;;;5076383;28;20550;-71
2023/08/24 05:32:58;;;;;;;27.00;24.70;;;;;;;;;;5078246;28;20459;-73
2023/08/24 05:35:26;;;;;;;25.75;23.38;;;;;;;;;;5075200;28;20028;-73
2023/08/24 05:37:52;;;;;;;27.25;24.85;;;;;;;;;;5076722;28;20032;-72
2023/08/24 05:40:17;;;;;;;25.95;23.75;;;;;;;;;;5075908;28;20031;-72
2023/08/24 05:42:42;;;;;;;26.92;24.52;;;;;;;;;;5073132;28;20473;-75
2023/08/24 05:45:08;;;;;;;26.05;23.65;;;;;;;;;;5069842;28;20032;-73
2023/08/24 05:47:33;;;;;;;25.33;23.17;;;;;;;;;;5076439;28;20051;-71
2023/08/24 05:49:58;;;;;;;25.52;23.27;;;;;;;;;;5075283;28;20545;-71
2023/08/24 05:52:24;;;;;;;24.40;22.50;;;;;;;;;;5077131;28;20426;-71
2023/08/24 05:54:49;;;;;;;25.48;23.08;;;;;;;;;;5074325;28;20040;-72
2023/08/24 05:57:14;;;;;;;23.10;21.00;;;;;;;;;;5071667;28;20032;-73
2023/08/24 05:59:40;;;;;;;23.63;21.65;;;;;;;;;;5076936;28;20085;-71
2023/08/24 06:02:05;;;;;;;23.67;21.65;;;;;;;;;;5076087;28;20060;-70
2023/08/24 06:04:30;;;;;;;23.85;21.85;;;;;;;;;;5073729;28;20016;-74
2023/08/24 06:06:56;;;;;;;22.50;20.63;;;;;;;;;;5075805;28;20112;-72
2023/08/24 06:09:21;;;;;;;22.27;20.13;;;;;;;;;;5076268;28;20114;-71
2023/08/24 06:11:46;;;;;;;21.85;19.80;;;;;;;;;;5067488;28;20032;-74
2023/08/24 06:14:12;;;;;;;21.80;18.95;;;;;;;;;;5055011;28;20019;-72
2023/08/24 06:16:37;;;;;;;22.70;20.48;;;;;;;;;;5070699;28;20038;-72
2023/08/24 06:19:03;;;;;;;21.20;19.35;;;;;;;;;;5073475;28;20024;-71
2023/08/24 06:21:28;;;;;;;20.25;18.45;;;;;;;;;;5071573;28;20060;-73
2023/08/24 06:23:54;;;;;;;22.55;19.65;;;;;;;;;;5075480;28;20346;-71
2023/08/24 06:26:19;;;;;;;20.05;18.30;;;;;;;;;;5074534;28;20036;-74
2023/08/24 06:28:45;;;;;;;18.73;17.13;;;;;;;;;;5075814;28;20399;-73
2023/08/24 06:31:11;;;;;;;19.60;17.98;;;;;;;;;;5074858;28;20028;-75
2023/08/24 06:33:36;;;;;;;21.05;19.05;;;;;;;;;;5076097;28;20450;-73
2023/08/24 06:36:04;;;;;;;22.23;17.02;;;;;;;;;;5074412;28;20640;-73
2023/08/24 06:38:30;;;;;;;19.15;17.10;;;;;;;;;;5075995;28;20088;-74
2023/08/24 06:40:55;;;;;;;18.35;16.75;;;;;;;;;;5075762;28;20028;-74
2023/08/24 06:43:21;;;;;;;18.40;16.83;;;;;;;;;;5076005;28;20027;-72
2023/08/24 06:45:46;;;;;;;18.73;17.13;;;;;;;;;;5075537;28;20127;-71
2023/08/24 06:48:11;;;;;;;20.13;18.13;;;;;;;;;;5074571;28;20085;-71
2023/08/24 06:50:37;;;;;;;18.85;16.92;;;;;;;;;;5073603;28;23560;-71
2023/08/24 06:53:03;;;;;;;18.27;16.70;;;;;;;;;;5074662;28;20020;-70
2023/08/24 06:55:28;;;;;;;18.83;17.23;;;;;;;;;;5075253;28;20034;-71
2023/08/24 06:57:54;;;;;;;18.42;16.70;;;;;;;;;;5076900;28;20480;-72
2023/08/24 07:00:20;;;;;;;18.60;17.05;;;;;;;;;;5074457;28;20400;-75
2023/08/24 07:02:48;;;;;;;17.15;15.73;;;;;;;;;;5066665;28;20028;-72
2023/08/24 07:05:14;;;;;;;23.98;21.20;;;;;;;;;;5062842;28;20031;-70
2023/08/24 07:07:40;;;;;;;26.58;23.88;;;;;;;;;;5073750;28;20032;-71
2023/08/24 07:10:06;;;;;;;20.25;18.45;;;;;;;;;;5073836;28;20028;-71
2023/08/24 07:12:31;;;;;;;17.73;16.13;;;;;;;;;;5074881;28;20027;-73
2023/08/24 07:14:57;;;;;;;16.90;15.50;;;;;;;;;;5075612;28;20024;-71
2023/08/24 07:17:22;;;;;;;16.70;15.20;;;;;;;;;;5075203;28;20050;-72
2023/08/24 07:19:47;;;;;;;17.73;16.02;;;;;;;;;;5074210;28;20050;-71
2023/08/24 07:22:13;;;;;;;17.13;15.70;;;;;;;;;;5074096;28;20031;-72
2023/08/24 07:24:39;;;;;;;15.25;13.73;;;;;;;;;;5073778;28;20054;-73
2023/08/24 07:27:04;;;;;;;17.90;15.98;;;;;;;;;;5073303;28;20111;-76
2023/08/24 07:29:30;;;;;;;16.52;14.93;;;;;;;;;;5074520;28;20089;-73
2023/08/24 07:31:55;;;;;;;17.10;15.60;;;;;;;;;;5073907;28;20481;-72
2023/08/24 07:34:22;;;;;;;16.23;14.57;;;;;;;;;;5074981;28;20951;-75
2023/08/24 07:36:48;;;;;;;15.95;14.60;;;;;;;;;;5073172;28;20410;-71
2023/08/24 07:39:15;;;;;;;17.05;15.55;;;;;;;;;;5075574;28;20099;-74
2023/08/24 07:41:40;;;;;;;18.20;16.60;;;;;;;;;;5073704;28;20093;-72
2023/08/24 07:44:05;;;;;;;19.48;17.60;;;;;;;;;;5073327;28;20037;-74
2023/08/24 07:46:31;;;;;;;18.88;16.90;;;;;;;;;;5072157;28;20474;-73
2023/08/24 07:48:56;;;;;;;19.00;16.98;;;;;;;;;;5072635;28;20059;-71
2023/08/24 07:51:22;;;;;;;18.02;16.30;;;;;;;;;;5075601;28;20039;-70
2023/08/24 07:53:48;;;;;;;16.95;15.38;;;;;;;;;;5074562;28;20662;-71
2023/08/24 07:56:14;;;;;;;16.65;15.18;;;;;;;;;;5074203;28;20351;-71
2023/08/24 07:58:39;;;;;;;17.00;15.60;;;;;;;;;;5073652;28;20028;-74
2023/08/24 08:01:04;;;;;;;55.88;51.42;;;;;;;;;;5073332;28;20407;-71
2023/08/24 08:03:30;;;;;;;41.00;37.45;;;;;;;;;;5073026;28;20081;-71
2023/08/24 08:05:56;;;;;;;20.83;18.95;;;;;;;;;;5073114;28;20024;-71
2023/08/24 08:08:22;;;;;;;17.15;15.57;;;;;;;;;;5073656;28;20027;-70
2023/08/24 08:10:47;;;;;;;17.10;15.23;;;;;;;;;;5073559;28;20031;-72
2023/08/24 08:13:13;;;;;;;16.05;14.73;;;;;;;;;;5074578;28;20044;-74
2023/08/24 08:15:38;;;;;;;16.75;15.35;;;;;;;;;;5072038;28;20032;-72
2023/08/24 08:18:04;;;;;;;15.57;14.18;;;;;;;;;;5072534;28;20028;-73
2023/08/24 08:20:30;;;;;;;15.48;14.07;;;;;;;;;;5074595;28;20474;-71
2023/08/24 08:22:55;;;;;;;18.20;14.38;;;;;;;;;;5073441;28;20057;-73
2023/08/24 08:25:22;;;;;;;15.18;13.88;;;;;;;;;;5074747;28;20028;-73
2023/08/24 08:27:47;;;;;;;16.05;14.48;;;;;;;;;;5071955;28;20402;-72
2023/08/24 08:30:13;;;;;;;16.00;14.77;;;;;;;;;;5068362;28;20024;-73
2023/08/24 08:32:38;;;;;;;16.52;14.18;;;;;;;;;;5073036;28;20032;-72
2023/08/24 08:35:04;;;;;;;16.98;15.52;;;;;;;;;;5073156;28;20020;-73
2023/08/24 08:37:32;;;;;;;17.67;16.23;;;;;;;;;;5072890;28;20400;-72
2023/08/24 08:39:58;;;;;;;17.15;15.60;;;;;;;;;;5071534;28;20163;-71
2023/08/24 08:42:23;;;;;;;18.67;16.98;;;;;;;;;;5062764;28;20107;-75
2023/08/24 08:44:49;;;;;;;17.42;15.88;;;;;;;;;;5062333;28;20028;-72
2023/08/24 08:47:15;;;;;;;17.13;15.23;;;;;;;;;;5061838;28;20419;-73
2023/08/24 08:49:43;;;;;;;14.32;13.02;;;;;;;;;;5061587;28;20035;-71
2023/08/24 08:52:09;;;;;;;13.18;12.18;;;;;;;;;;5062165;28;20050;-73
2023/08/24 08:54:34;;;;;;;14.50;13.30;;;;;;;;;;5062000;28;20135;-71
2023/08/24 08:57:00;;;;;;;13.63;12.43;;;;;;;;;;5061016;28;20932;-75
2023/08/24 08:59:29;;;;;;;12.90;11.65;;;;;;;;;;5062721;28;20028;-71
2023/08/24 09:01:55;;;;;;;15.07;13.70;;;;;;;;;;5043173;28;20184;-73
2023/08/24 09:04:21;;;;;;;13.65;12.45;;;;;;;;;;5069509;28;20038;-72
2023/08/24 09:06:46;;;;;;;15.20;13.77;;;;;;;;;;5074362;28;20028;-73
2023/08/24 09:09:12;;;;;;;14.43;13.13;;;;;;;;;;5071797;28;20040;-71
2023/08/24 09:11:38;;;;;;;13.32;12.27;;;;;;;;;;5061958;28;20028;-72
2023/08/24 09:14:04;;;;;;;14.60;13.35;;;;;;;;;;5058916;28;20289;-71
2023/08/24 09:16:29;;;;;;;12.85;11.85;;;;;;;;;;5061062;28;20507;-75
2023/08/24 09:18:55;;;;;;;13.63;12.38;;;;;;;;;;5064896;28;20028;-72
2023/08/24 09:21:20;;;;;;;13.00;11.98;;;;;;;;;;5064929;28;20401;-72
2023/08/24 09:23:53;;;;;;;13.25;12.15;;;;;;;;;;5065605;28;20046;-72
2023/08/24 09:26:29;;;;;;;13.80;12.52;;;;;;;;;;5064949;28;20035;-72
2023/08/24 09:28:54;;;;;;;13.13;12.00;;;;;;;;;;5063948;28;20359;-72
2023/08/24 09:31:20;;;;;;;13.50;12.40;;;;;;;;;;5066145;28;20031;-75
2023/08/24 09:33:46;;;;;;;13.40;12.13;;;;;;;;;;5065733;28;20403;-71
2023/08/24 09:36:13;;;;;;;13.45;12.35;;;;;;;;;;5065313;28;20093;-73
2023/08/24 09:38:45;;;;;;;13.60;12.20;;;;;;;;;;5066647;28;21081;-73
2023/08/24 09:41:10;;;;;;;13.38;12.23;;;;;;;;;;5073432;28;20027;-72
2023/08/24 09:43:36;;;;;;;14.68;11.93;;;;;;;;;;5076381;28;20024;-72
2023/08/24 09:46:03;;;;;;;14.15;12.43;;;;;;;;;;5075191;28;20043;-71
2023/08/24 09:48:28;;;;;;;15.63;12.82;;;;;;;;;;5057312;28;20344;-75
2023/08/24 09:50:54;;;;;;;13.02;12.02;;;;;;;;;;5074931;28;20043;-72
2023/08/24 09:53:21;;;;;;;14.07;12.50;;;;;;;;;;5077388;28;20032;-72
2023/08/24 09:55:55;;;;;;;13.57;12.32;;;;;;;;;;5075367;28;20500;-71
2023/08/24 09:58:24;;;;;;;13.15;12.00;;;;;;;;;;5074171;28;20555;-71
2023/08/24 10:00:50;;;;;;;12.48;11.27;;;;;;;;;;5074788;28;20027;-73
2023/08/24 10:03:18;;;;;;;12.77;11.65;;;;;;;;;;5074542;28;20036;-73
2023/08/24 10:05:44;;;;;;;12.00;11.18;;;;;;;;;;5076511;28;20032;-72
2023/08/24 10:08:10;;;;;;;11.88;10.88;;;;;;;;;;5075864;28;20359;-72
2023/08/24 10:10:36;;;;;;;12.63;11.32;;;;;;;;;;5075118;28;20074;-71
2023/08/24 10:13:08;;;;;;;12.98;11.65;;;;;;;;;;5073408;28;20458;-72
2023/08/24 10:15:34;;;;;;;12.70;11.70;;;;;;;;;;5075440;28;20126;-72
2023/08/24 10:18:00;;;;;;;12.85;11.52;;;;;;;;;;5075172;28;20466;-75
2023/08/24 10:20:26;;;;;;;13.07;11.48;;;;;;;;;;5074746;28;20027;-75
2023/08/24 10:22:51;;;;;;;13.73;12.40;;;;;;;;;;5076980;28;20032;-71
2023/08/24 10:25:19;;;;;;;12.88;11.77;;;;;;;;;;5076413;28;20020;-72
2023/08/24 10:27:47;;;;;;;12.40;11.40;;;;;;;;;;5074152;28;20028;-74
2023/08/24 10:30:13;;;;;;;13.88;12.05;;;;;;;;;;5074584;28;20043;-73
2023/08/24 10:32:40;;;;;;;13.70;12.30;;;;;;;;;;5075681;28;20029;-72
2023/08/24 10:35:06;;;;;;;13.55;12.15;;;;;;;;;;5073538;28;20092;-75
2023/08/24 10:37:34;;;;;;;26.45;12.15;;;;;;;;;;5075969;28;20435;-76
2023/08/24 10:39:59;;;;;;;33.50;16.17;;;;;;;;;;5075150;28;20038;-72
2023/08/24 10:42:26;;;;;;;16.40;11.38;;;;;;;;;;5072363;28;20041;-71
2023/08/24 10:44:51;;;;;;;13.75;11.38;;;;;;;;;;5074070;28;20525;-71
2023/08/24 10:47:22;;;;;;;14.20;12.88;;;;;;;;;;5075160;28;20047;-73
2023/08/24 10:49:56;;;;;;;11.57;10.52;;;;;;;;;;5074569;28;20028;-75
2023/08/24 10:52:23;;;;;;;10.07;9.27;;;;;;;;;;5074497;28;20066;-71
2023/08/24 10:54:49;;;;;;;11.25;10.15;;;;;;;;;;5074929;28;20165;-71
2023/08/24 10:57:19;;;;;;;13.73;12.38;;;;;;;;;;5073823;28;20508;-70
2023/08/24 10:59:45;;;;;;;;;;;;;;;;;;5073495;28;20148;-73
2023/08/24 11:02:18;;;;;;;16.70;13.20;;;;;;;;;;5075276;28;20381;-71
2023/08/24 11:05:04;;;;;;;13.40;12.23;;;;;;;;;;5073596;28;20791;-71
2023/08/24 11:07:29;;;;;;;15.48;14.18;;;;;;;;;;5073148;28;20431;-72
2023/08/24 11:09:55;;;;;;;17.38;15.63;;;;;;;;;;5069205;28;20035;-72
2023/08/24 11:12:20;;;;;;;14.98;13.57;;;;;;;;;;5063669;28;20105;-70
2023/08/24 11:14:49;;;;;;;15.40;14.10;;;;;;;;;;5062533;28;20027;-74
2023/08/24 11:17:18;;;;;;;16.10;14.60;;;;;;;;;;5061420;28;20223;-71
2023/08/24 11:19:43;;;;;;;;;;;;;;;;;;5061743;28;20031;-71
2023/08/24 11:22:08;;;;;;;14.93;13.63;;;;;;;;;;5064049;28;19912;-69
2023/08/24 11:24:36;;;;;;;15.00;13.80;;;;;;;;;;5063001;28;20497;-70
2023/08/24 11:27:02;;;;;;;16.35;14.80;;;;;;;;;;5061772;28;20355;-70
2023/08/24 11:29:27;;;;;;;16.17;14.82;;;;;;;;;;5064100;28;20024;-70
2023/08/24 11:31:53;;;;;;;23.58;20.17;;;;;;;;;;5062524;28;20459;-70
2023/08/24 11:34:18;;;;;;;18.67;16.80;;;;;;;;;;5062330;28;20376;-69
2023/08/24 11:36:43;;;;;;;20.13;18.20;;;;;;;;;;5065592;28;20095;-71
2023/08/24 11:39:14;;;;;;;20.40;18.58;;;;;;;;;;5073994;28;20028;-69
2023/08/24 11:41:39;;;;;;;16.70;15.13;;;;;;;;;;5073745;28;20033;-74
2023/08/24 11:44:06;;;;;;;17.02;15.63;;;;;;;;;;5074574;28;20032;-70
2023/08/24 11:46:31;;;;;;;16.83;15.38;;;;;;;;;;5070574;28;20063;-69
2023/08/24 11:48:57;;;;;;;19.02;17.40;;;;;;;;;;5061425;28;20355;-71
2023/08/24 11:51:23;;;;;;;17.17;15.63;;;;;;;;;;5071823;28;20027;-68
2023/08/24 11:53:48;;;;;;;16.25;14.85;;;;;;;;;;5065584;28;20035;-71
2023/08/24 11:56:14;;;;;;;17.75;16.25;;;;;;;;;;5062645;28;20443;-71
2023/08/24 11:58:43;;;;;;;17.73;16.08;;;;;;;;;;5063697;28;20454;-74
2023/08/24 12:01:08;;;;;;;;;;;;;;;;;;5063300;28;20030;-68
2023/08/24 12:03:35;;;;;;;17.93;16.10;;;;;;;;;;5045742;28;19916;-70
2023/08/24 12:06:01;;;;;;;18.50;16.77;;;;;;;;;;5061411;28;20089;-69
2023/08/24 12:08:26;;;;;;;18.30;16.70;;;;;;;;;;5067962;28;20024;-69
2023/08/24 12:10:51;;;;;;;21.98;19.88;;;;;;;;;;5074951;28;20098;-72
2023/08/24 12:13:17;;;;;;;23.60;21.27;;;;;;;;;;5070985;28;20134;-71
2023/08/24 12:15:43;;;;;;;21.98;19.98;;;;;;;;;;5072719;28;20035;-70
2023/08/24 12:18:14;;;;;;;22.00;19.73;;;;;;;;;;5073728;28;20035;-69
2023/08/24 12:20:42;;;;;;;21.35;19.65;;;;;;;;;;5073203;28;20028;-70
2023/08/24 12:23:09;;;;;;;20.67;18.45;;;;;;;;;;5074925;28;20031;-72
2023/08/24 12:25:38;;;;;;;24.42;17.92;;;;;;;;;;5064647;28;20039;-71
2023/08/24 12:28:10;;;;;;;20.70;18.95;;;;;;;;;;5060002;28;20024;-74
2023/08/24 12:30:47;;;;;;;22.95;20.98;;;;;;;;;;5062535;28;20476;-71
2023/08/24 12:33:29;;;;;;;22.60;20.67;;;;;;;;;;5062891;28;20032;-68
2023/08/24 12:35:55;;;;;;;21.77;20.00;;;;;;;;;;5061888;28;20085;-71
2023/08/24 12:38:21;;;;;;;21.20;19.40;;;;;;;;;;5063283;28;20435;-69
2023/08/24 12:40:46;;;;;;;20.48;18.63;;;;;;;;;;5062047;28;20034;-70
2023/08/24 12:43:11;;;;;;;20.90;19.17;;;;;;;;;;5062642;28;20055;-70
2023/08/24 12:45:37;;;;;;;19.55;17.85;;;;;;;;;;5063303;28;20433;-68
2023/08/24 12:48:07;;;;;;;20.92;18.92;;;;;;;;;;5062210;28;20043;-74
2023/08/24 12:50:32;;;;;;;22.17;20.25;;;;;;;;;;5061788;28;20024;-67
2023/08/24 12:52:59;;;;;;;24.63;22.00;;;;;;;;;;5063173;28;20096;-69
2023/08/24 12:55:28;;;;;;;27.77;24.83;;;;;;;;;;5065858;28;20346;-68
2023/08/24 12:57:53;;;;;;;29.23;26.45;;;;;;;;;;5047045;28;20393;-71
2023/08/24 13:00:19;;;;;;;23.15;21.08;;;;;;;;;;5065450;28;20031;-71
2023/08/24 13:02:44;;;;;;;21.65;19.88;;;;;;;;;;5066455;28;20034;-72
2023/08/24 13:05:10;;;;;;;21.92;20.02;;;;;;;;;;5063887;28;20197;-70
2023/08/24 13:07:36;;;;;;;22.25;20.45;;;;;;;;;;5065223;28;20073;-69
2023/08/24 13:10:02;;;;;;;21.58;19.83;;;;;;;;;;5065019;28;20042;-71
2023/08/24 13:12:27;;;;;;;23.20;20.95;;;;;;;;;;5062505;28;20024;-71
2023/08/24 13:14:53;;;;;;;25.50;23.10;;;;;;;;;;5062948;28;20442;-72
2023/08/24 13:17:18;;;;;;;23.45;21.27;;;;;;;;;;5063951;28;20028;-71
2023/08/24 13:19:44;;;;;;;24.48;22.25;;;;;;;;;;5052501;28;20028;-70
2023/08/24 13:22:11;;;;;;;23.58;21.58;;;;;;;;;;5051622;28;20036;-69
2023/08/24 13:24:36;;;;;;;20.98;19.05;;;;;;;;;;5063029;28;20047;-68
2023/08/24 13:27:02;;;;;;;21.88;19.92;;;;;;;;;;5058877;28;20336;-70
2023/08/24 13:29:28;;;;;;;21.92;19.95;;;;;;;;;;5067620;28;20029;-68
2023/08/24 13:31:53;;;;;;;22.42;20.63;;;;;;;;;;5064203;28;20047;-66
2023/08/24 13:34:19;;;;;;;22.63;20.13;;;;;;;;;;5060553;28;20023;-68
2023/08/24 13:36:44;;;;;;;22.88;20.88;;;;;;;;;;5065126;28;20093;-66
2023/08/24 13:39:10;;;;;;;22.55;20.60;;;;;;;;;;5065458;28;20028;-69
2023/08/24 13:41:36;;;;;;;23.67;21.20;;;;;;;;;;5070381;28;20027;-70
2023/08/24 13:44:01;;;;;;;29.88;26.98;;;;;;;;;;5064731;28;20024;-70
2023/08/24 13:46:27;;;;;;;26.92;24.48;;;;;;;;;;5064713;28;20080;-68
2023/08/24 13:48:52;;;;;;;24.92;22.65;;;;;;;;;;5064160;28;20332;-70
2023/08/24 13:51:17;;;;;;;23.88;22.02;;;;;;;;;;5053332;28;20036;-73
2023/08/24 13:53:43;;;;;;;23.88;21.88;;;;;;;;;;5060293;28;20138;-69
2023/08/24 13:56:08;;;;;;;22.83;20.83;;;;;;;;;;5064168;28;20020;-69
2023/08/24 13:58:34;;;;;;;23.55;21.55;;;;;;;;;;5064395;28;20016;-72
2023/08/24 14:00:59;;;;;;;22.02;19.95;;;;;;;;;;5056714;28;20024;-68
2023/08/24 14:03:25;;;;;;;22.17;20.17;;;;;;;;;;5054608;28;20373;-67
2023/08/24 14:05:54;;;;;;;21.88;20.05;;;;;;;;;;5052216;28;20024;-67
2023/08/24 14:08:20;;;;;;;22.15;20.20;;;;;;;;;;5041938;28;20163;-68
2023/08/24 14:10:48;;;;;;;21.95;19.45;;;;;;;;;;5043089;28;20107;-73
2023/08/24 14:13:14;;;;;;;21.33;19.20;;;;;;;;;;5073461;28;20084;-70